Poynor, Missouri
Current Conditions -  °F | °C
As of 6:53 AM on Friday 28 Nov 2014 (Local Time) from KPOF Reporting Station
Haze Haze  
Wind Chill: 22°   Ceiling: Unl
Heat Index: 28°   Visibility: 6mi
Dew Point: 24°   Wind: 6mph
Humidity: 85%   Direction: 160°SSE
Pressure: 30.35"   Gusts: NA
Location:  36.6514°N, 90.8035°W
Report Text: KPOF 281253Z AUTO 16005KT 6SM BR CLR M02/M04 A3035 RMK AO2 SLP285 T10221044
Loading
Personal Weather Stations






























Interactive Weather Map New forecast layout! Learn more

10-Day Weather Forecast

Advertisements
Track Severe Weather on mobile